sensor_id;sensor_type;location;lat;lon;timestamp;temperature;humidity
54642;DHT22;40536;53.194;5.728;2022-09-17T00:01:07;11.60;99.90
54642;DHT22;40536;53.194;5.728;2022-09-17T00:03:34;11.60;99.90
54642;DHT22;40536;53.194;5.728;2022-09-17T00:06:04;11.60;99.90
54642;DHT22;40536;53.194;5.728;2022-09-17T00:08:31;11.60;99.90
54642;DHT22;40536;53.194;5.728;2022-09-17T00:10:57;11.70;99.90
54642;DHT22;40536;53.194;5.728;2022-09-17T00:13:23;11.70;99.90
54642;DHT22;40536;53.194;5.728;2022-09-17T00:15:49;11.80;99.90
54642;DHT22;40536;53.194;5.728;2022-09-17T00:18:17;11.90;99.90
54642;DHT22;40536;53.194;5.728;2022-09-17T00:20:44;11.90;99.90
54642;DHT22;40536;53.194;5.728;2022-09-17T00:23:12;11.90;99.90
54642;DHT22;40536;53.194;5.728;2022-09-17T00:25:39;11.90;99.90
54642;DHT22;40536;53.194;5.728;2022-09-17T00:28:06;11.90;99.90
54642;DHT22;40536;53.194;5.728;2022-09-17T00:30:31;11.90;99.90
54642;DHT22;40536;53.194;5.728;2022-09-17T00:32:57;11.80;99.90
54642;DHT22;40536;53.194;5.728;2022-09-17T00:35:26;11.80;99.90
54642;DHT22;40536;53.194;5.728;2022-09-17T00:37:52;11.80;99.90
54642;DHT22;40536;53.194;5.728;2022-09-17T00:40:19;11.80;99.90
54642;DHT22;40536;53.194;5.728;2022-09-17T00:42:45;11.80;99.90
54642;DHT22;40536;53.194;5.728;2022-09-17T00:45:12;11.90;99.90
54642;DHT22;40536;53.194;5.728;2022-09-17T00:47:41;11.60;99.90
54642;DHT22;40536;53.194;5.728;2022-09-17T00:50:13;11.70;99.90
54642;DHT22;40536;53.194;5.728;2022-09-17T00:52:43;11.60;99.90
54642;DHT22;40536;53.194;5.728;2022-09-17T00:55:24;11.60;99.90
54642;DHT22;40536;53.194;5.728;2022-09-17T00:57:54;11.50;99.90
54642;DHT22;40536;53.194;5.728;2022-09-17T01:00:21;11.50;99.90
54642;DHT22;40536;53.194;5.728;2022-09-17T01:02:47;11.30;99.90
54642;DHT22;40536;53.194;5.728;2022-09-17T01:05:13;11.30;99.90
54642;DHT22;40536;53.194;5.728;2022-09-17T01:08:06;11.20;99.90
54642;DHT22;40536;53.194;5.728;2022-09-17T01:16:27;11.50;99.90
54642;DHT22;40536;53.194;5.728;2022-09-17T01:21:47;11.50;99.90
54642;DHT22;40536;53.194;5.728;2022-09-17T01:30:14;11.50;99.90
54642;DHT22;40536;53.194;5.728;2022-09-17T01:44:28;11.80;99.90
54642;DHT22;40536;53.194;5.728;2022-09-17T01:49:29;11.80;99.90
54642;DHT22;40536;53.194;5.728;2022-09-17T01:51:56;11.80;99.90
54642;DHT22;40536;53.194;5.728;2022-09-17T01:54:31;11.80;99.90
54642;DHT22;40536;53.194;5.728;2022-09-17T01:57:26;11.80;99.90
54642;DHT22;40536;53.194;5.728;2022-09-17T02:00:04;11.70;99.90
54642;DHT22;40536;53.194;5.728;2022-09-17T02:02:34;11.70;99.90
54642;DHT22;40536;53.194;5.728;2022-09-17T02:05:33;11.70;99.90
54642;DHT22;40536;53.194;5.728;2022-09-17T02:08:09;11.70;99.90
54642;DHT22;40536;53.194;5.728;2022-09-17T02:10:41;11.60;99.90
54642;DHT22;40536;53.194;5.728;2022-09-17T02:13:26;11.60;99.90
54642;DHT22;40536;53.194;5.728;2022-09-17T02:16:05;11.60;99.90
54642;DHT22;40536;53.194;5.728;2022-09-17T02:21:12;11.70;99.90
54642;DHT22;40536;53.194;5.728;2022-09-17T02:24:02;11.80;99.90
54642;DHT22;40536;53.194;5.728;2022-09-17T02:26:31;11.90;99.90
54642;DHT22;40536;53.194;5.728;2022-09-17T02:29:07;11.90;99.90
54642;DHT22;40536;53.194;5.728;2022-09-17T02:31:34;11.90;99.90
54642;DHT22;40536;53.194;5.728;2022-09-17T02:34:01;12.00;99.90
54642;DHT22;40536;53.194;5.728;2022-09-17T02:36:29;11.90;99.90
54642;DHT22;40536;53.194;5.728;2022-09-17T02:39:01;11.70;99.90
54642;DHT22;40536;53.194;5.728;2022-09-17T02:45:22;11.50;99.90
54642;DHT22;40536;53.194;5.728;2022-09-17T02:50:33;11.50;99.90
54642;DHT22;40536;53.194;5.728;2022-09-17T02:53:10;11.40;99.90
54642;DHT22;40536;53.194;5.728;2022-09-17T02:58:35;11.30;99.90
54642;DHT22;40536;53.194;5.728;2022-09-17T03:01:08;11.20;99.90
54642;DHT22;40536;53.194;5.728;2022-09-17T03:03:38;11.20;99.90
54642;DHT22;40536;53.194;5.728;2022-09-17T03:06:06;11.20;99.90
54642;DHT22;40536;53.194;5.728;2022-09-17T03:08:34;11.10;99.90
54642;DHT22;40536;53.194;5.728;2022-09-17T03:11:02;11.00;99.90
54642;DHT22;40536;53.194;5.728;2022-09-17T03:13:29;11.00;99.90
54642;DHT22;40536;53.194;5.728;2022-09-17T03:15:55;11.00;99.90
54642;DHT22;40536;53.194;5.728;2022-09-17T03:18:22;11.00;99.90
54642;DHT22;40536;53.194;5.728;2022-09-17T03:20:48;11.00;99.90
54642;DHT22;40536;53.194;5.728;2022-09-17T03:23:14;11.40;99.90
54642;DHT22;40536;53.194;5.728;2022-09-17T03:25:39;11.10;99.90
54642;DHT22;40536;53.194;5.728;2022-09-17T03:28:05;11.30;99.90
54642;DHT22;40536;53.194;5.728;2022-09-17T03:30:31;11.30;99.90
54642;DHT22;40536;53.194;5.728;2022-09-17T03:32:56;11.30;99.90
54642;DHT22;40536;53.194;5.728;2022-09-17T03:35:22;11.40;99.90
54642;DHT22;40536;53.194;5.728;2022-09-17T03:37:47;11.40;99.90
54642;DHT22;40536;53.194;5.728;2022-09-17T03:40:13;11.50;99.90
54642;DHT22;40536;53.194;5.728;2022-09-17T03:42:39;11.50;99.90
54642;DHT22;40536;53.194;5.728;2022-09-17T03:45:05;11.50;99.90
54642;DHT22;40536;53.194;5.728;2022-09-17T03:47:31;11.60;99.90
54642;DHT22;40536;53.194;5.728;2022-09-17T03:49:56;11.60;99.90
54642;DHT22;40536;53.194;5.728;2022-09-17T03:52:22;11.70;99.90
54642;DHT22;40536;53.194;5.728;2022-09-17T03:54:48;11.70;99.90
54642;DHT22;40536;53.194;5.728;2022-09-17T03:57:13;12.10;99.90
54642;DHT22;40536;53.194;5.728;2022-09-17T03:59:39;11.90;99.90
54642;DHT22;40536;53.194;5.728;2022-09-17T04:02:05;11.80;99.90
54642;DHT22;40536;53.194;5.728;2022-09-17T04:04:31;11.90;99.90
54642;DHT22;40536;53.194;5.728;2022-09-17T04:06:56;11.80;99.90
54642;DHT22;40536;53.194;5.728;2022-09-17T04:09:22;11.60;99.90
54642;DHT22;40536;53.194;5.728;2022-09-17T04:11:48;11.50;99.90
54642;DHT22;40536;53.194;5.728;2022-09-17T04:14:14;11.40;99.90
54642;DHT22;40536;53.194;5.728;2022-09-17T04:16:39;11.30;99.90
54642;DHT22;40536;53.194;5.728;2022-09-17T04:19:05;11.20;99.90
54642;DHT22;40536;53.194;5.728;2022-09-17T04:21:31;11.10;99.90
54642;DHT22;40536;53.194;5.728;2022-09-17T04:23:56;11.00;99.90
54642;DHT22;40536;53.194;5.728;2022-09-17T04:26:22;10.80;99.90
54642;DHT22;40536;53.194;5.728;2022-09-17T04:28:48;10.80;99.90
54642;DHT22;40536;53.194;5.728;2022-09-17T04:31:14;10.70;99.90
54642;DHT22;40536;53.194;5.728;2022-09-17T04:33:39;10.60;99.90
54642;DHT22;40536;53.194;5.728;2022-09-17T04:36:05;10.60;99.90
54642;DHT22;40536;53.194;5.728;2022-09-17T04:38:31;10.50;99.90
54642;DHT22;40536;53.194;5.728;2022-09-17T04:40:58;10.50;99.90
54642;DHT22;40536;53.194;5.728;2022-09-17T04:43:24;10.60;99.90
54642;DHT22;40536;53.194;5.728;2022-09-17T04:45:49;10.70;99.90
54642;DHT22;40536;53.194;5.728;2022-09-17T04:48:15;10.70;99.90
54642;DHT22;40536;53.194;5.728;2022-09-17T04:50:41;10.90;99.90
54642;DHT22;40536;53.194;5.728;2022-09-17T04:53:06;10.90;99.90
54642;DHT22;40536;53.194;5.728;2022-09-17T04:55:32;11.00;99.90
54642;DHT22;40536;53.194;5.728;2022-09-17T04:57:58;11.00;99.90
54642;DHT22;40536;53.194;5.728;2022-09-17T05:00:24;11.20;99.90
54642;DHT22;40536;53.194;5.728;2022-09-17T05:02:52;11.10;99.90
54642;DHT22;40536;53.194;5.728;2022-09-17T05:05:19;11.20;99.90
54642;DHT22;40536;53.194;5.728;2022-09-17T05:07:45;11.40;99.90
54642;DHT22;40536;53.194;5.728;2022-09-17T05:10:11;11.20;99.90
54642;DHT22;40536;53.194;5.728;2022-09-17T05:12:38;11.20;99.90
54642;DHT22;40536;53.194;5.728;2022-09-17T05:15:04;11.10;99.90
54642;DHT22;40536;53.194;5.728;2022-09-17T05:17:30;11.10;99.90
54642;DHT22;40536;53.194;5.728;2022-09-17T05:19:55;12.10;99.90
54642;DHT22;40536;53.194;5.728;2022-09-17T05:22:21;11.10;99.90
54642;DHT22;40536;53.194;5.728;2022-09-17T05:24:47;11.10;99.90
54642;DHT22;40536;53.194;5.728;2022-09-17T05:27:13;11.20;99.90
54642;DHT22;40536;53.194;5.728;2022-09-17T05:29:38;11.20;99.90
54642;DHT22;40536;53.194;5.728;2022-09-17T05:32:04;11.20;99.90
54642;DHT22;40536;53.194;5.728;2022-09-17T05:34:30;11.20;99.90
54642;DHT22;40536;53.194;5.728;2022-09-17T05:36:56;11.30;99.90
54642;DHT22;40536;53.194;5.728;2022-09-17T05:39:21;11.40;99.90
54642;DHT22;40536;53.194;5.728;2022-09-17T05:41:53;11.40;99.90
54642;DHT22;40536;53.194;5.728;2022-09-17T05:44:19;11.40;99.90
54642;DHT22;40536;53.194;5.728;2022-09-17T05:46:46;11.30;99.90
54642;DHT22;40536;53.194;5.728;2022-09-17T05:49:12;11.20;99.90
54642;DHT22;40536;53.194;5.728;2022-09-17T05:51:40;11.20;99.90
54642;DHT22;40536;53.194;5.728;2022-09-17T05:54:06;11.10;99.90
54642;DHT22;40536;53.194;5.728;2022-09-17T05:56:32;11.10;99.90
54642;DHT22;40536;53.194;5.728;2022-09-17T05:58:58;11.30;99.90
54642;DHT22;40536;53.194;5.728;2022-09-17T06:01:24;11.00;99.90
54642;DHT22;40536;53.194;5.728;2022-09-17T06:03:49;11.60;99.90
54642;DHT22;40536;53.194;5.728;2022-09-17T06:06:15;11.30;99.90
54642;DHT22;40536;53.194;5.728;2022-09-17T06:08:41;11.30;99.90
54642;DHT22;40536;53.194;5.728;2022-09-17T06:11:07;10.90;99.90
54642;DHT22;40536;53.194;5.728;2022-09-17T06:13:33;10.40;99.90
54642;DHT22;40536;53.194;5.728;2022-09-17T06:16:01;10.20;99.90
54642;DHT22;40536;53.194;5.728;2022-09-17T06:18:28;10.10;99.90
54642;DHT22;40536;53.194;5.728;2022-09-17T06:21:01;10.20;99.90
54642;DHT22;40536;53.194;5.728;2022-09-17T06:23:27;10.40;99.90
54642;DHT22;40536;53.194;5.728;2022-09-17T06:25:55;10.70;99.90
54642;DHT22;40536;53.194;5.728;2022-09-17T06:28:21;11.20;99.90
54642;DHT22;40536;53.194;5.728;2022-09-17T06:30:47;10.90;99.90
54642;DHT22;40536;53.194;5.728;2022-09-17T06:33:13;11.80;99.90
54642;DHT22;40536;53.194;5.728;2022-09-17T06:35:39;11.70;99.90
54642;DHT22;40536;53.194;5.728;2022-09-17T06:38:05;12.20;99.90
54642;DHT22;40536;53.194;5.728;2022-09-17T06:40:31;11.90;99.90
54642;DHT22;40536;53.194;5.728;2022-09-17T06:42:58;11.70;99.90
54642;DHT22;40536;53.194;5.728;2022-09-17T06:45:27;12.50;99.90
54642;DHT22;40536;53.194;5.728;2022-09-17T06:47:53;11.70;99.90
54642;DHT22;40536;53.194;5.728;2022-09-17T06:50:19;11.40;99.90
54642;DHT22;40536;53.194;5.728;2022-09-17T06:52:52;11.30;99.90
54642;DHT22;40536;53.194;5.728;2022-09-17T06:55:18;11.20;99.90
54642;DHT22;40536;53.194;5.728;2022-09-17T06:57:44;11.60;99.90
54642;DHT22;40536;53.194;5.728;2022-09-17T07:00:10;11.00;99.90
54642;DHT22;40536;53.194;5.728;2022-09-17T07:02:36;10.80;99.90
54642;DHT22;40536;53.194;5.728;2022-09-17T07:05:03;10.60;99.90
54642;DHT22;40536;53.194;5.728;2022-09-17T07:07:29;10.40;99.90
54642;DHT22;40536;53.194;5.728;2022-09-17T07:09:55;10.60;99.90
54642;DHT22;40536;53.194;5.728;2022-09-17T07:12:21;10.40;99.90
54642;DHT22;40536;53.194;5.728;2022-09-17T07:14:46;10.50;99.90
54642;DHT22;40536;53.194;5.728;2022-09-17T07:17:13;10.50;99.90
54642;DHT22;40536;53.194;5.728;2022-09-17T07:19:39;10.80;99.90
54642;DHT22;40536;53.194;5.728;2022-09-17T07:22:05;10.60;99.90
54642;DHT22;40536;53.194;5.728;2022-09-17T07:24:31;10.90;99.90
54642;DHT22;40536;53.194;5.728;2022-09-17T07:26:56;11.40;99.90
54642;DHT22;40536;53.194;5.728;2022-09-17T07:29:22;11.60;99.90
54642;DHT22;40536;53.194;5.728;2022-09-17T07:31:51;12.20;99.90
54642;DHT22;40536;53.194;5.728;2022-09-17T07:34:17;12.70;99.90
54642;DHT22;40536;53.194;5.728;2022-09-17T07:36:42;12.90;99.90
54642;DHT22;40536;53.194;5.728;2022-09-17T07:39:09;12.90;99.90
54642;DHT22;40536;53.194;5.728;2022-09-17T07:41:40;12.50;99.90
54642;DHT22;40536;53.194;5.728;2022-09-17T07:44:08;11.80;99.90
54642;DHT22;40536;53.194;5.728;2022-09-17T07:46:36;11.60;99.90
54642;DHT22;40536;53.194;5.728;2022-09-17T07:49:01;11.60;99.90
54642;DHT22;40536;53.194;5.728;2022-09-17T07:51:27;12.20;99.90
54642;DHT22;40536;53.194;5.728;2022-09-17T07:53:55;12.60;99.90
54642;DHT22;40536;53.194;5.728;2022-09-17T07:56:22;12.40;99.90
54642;DHT22;40536;53.194;5.728;2022-09-17T07:58:48;12.00;99.90
54642;DHT22;40536;53.194;5.728;2022-09-17T08:01:15;11.70;99.90
54642;DHT22;40536;53.194;5.728;2022-09-17T08:03:42;11.60;99.90
54642;DHT22;40536;53.194;5.728;2022-09-17T08:06:14;11.30;99.90
54642;DHT22;40536;53.194;5.728;2022-09-17T08:08:40;11.40;99.90
54642;DHT22;40536;53.194;5.728;2022-09-17T08:11:14;11.60;99.90
54642;DHT22;40536;53.194;5.728;2022-09-17T08:13:40;12.50;99.90
54642;DHT22;40536;53.194;5.728;2022-09-17T08:16:09;12.80;99.90
54642;DHT22;40536;53.194;5.728;2022-09-17T08:18:38;12.60;99.90
54642;DHT22;40536;53.194;5.728;2022-09-17T08:21:06;12.40;99.90
54642;DHT22;40536;53.194;5.728;2022-09-17T08:23:34;12.20;99.90
54642;DHT22;40536;53.194;5.728;2022-09-17T08:26:00;12.00;99.90
54642;DHT22;40536;53.194;5.728;2022-09-17T08:28:29;11.90;99.90
54642;DHT22;40536;53.194;5.728;2022-09-17T08:30:59;11.90;99.90
54642;DHT22;40536;53.194;5.728;2022-09-17T08:33:25;12.60;99.90
54642;DHT22;40536;53.194;5.728;2022-09-17T08:35:52;13.60;99.90
54642;DHT22;40536;53.194;5.728;2022-09-17T08:38:18;14.30;99.90
54642;DHT22;40536;53.194;5.728;2022-09-17T08:43:46;15.60;99.90
54642;DHT22;40536;53.194;5.728;2022-09-17T08:46:15;16.10;99.90
54642;DHT22;40536;53.194;5.728;2022-09-17T08:51:37;16.50;99.90
54642;DHT22;40536;53.194;5.728;2022-09-17T08:59:59;16.90;99.90
54642;DHT22;40536;53.194;5.728;2022-09-17T09:05:27;17.10;99.90
54642;DHT22;40536;53.194;5.728;2022-09-17T09:08:03;17.10;99.90
54642;DHT22;40536;53.194;5.728;2022-09-17T09:10:51;17.10;99.90
54642;DHT22;40536;53.194;5.728;2022-09-17T09:13:20;16.00;99.90
54642;DHT22;40536;53.194;5.728;2022-09-17T09:16:00;15.00;99.90
54642;DHT22;40536;53.194;5.728;2022-09-17T09:18:29;14.20;99.90
54642;DHT22;40536;53.194;5.728;2022-09-17T09:24:09;14.50;99.90
54642;DHT22;40536;53.194;5.728;2022-09-17T09:26:44;15.50;99.90
54642;DHT22;40536;53.194;5.728;2022-09-17T09:34:26;16.30;99.90
54642;DHT22;40536;53.194;5.728;2022-09-17T09:37:01;15.70;99.90
54642;DHT22;40536;53.194;5.728;2022-09-17T09:39:32;15.00;99.90
54642;DHT22;40536;53.194;5.728;2022-09-17T09:42:04;14.50;99.90
54642;DHT22;40536;53.194;5.728;2022-09-17T09:44:33;14.20;99.90
54642;DHT22;40536;53.194;5.728;2022-09-17T09:47:20;14.40;99.90
54642;DHT22;40536;53.194;5.728;2022-09-17T09:50:04;15.20;99.90
54642;DHT22;40536;53.194;5.728;2022-09-17T10:01:00;15.80;99.90
54642;DHT22;40536;53.194;5.728;2022-09-17T10:03:31;16.10;99.90
54642;DHT22;40536;53.194;5.728;2022-09-17T10:05:59;16.80;99.90
54642;DHT22;40536;53.194;5.728;2022-09-17T10:08:27;17.70;99.90
54642;DHT22;40536;53.194;5.728;2022-09-17T10:11:20;16.80;99.90
54642;DHT22;40536;53.194;5.728;2022-09-17T10:13:44;15.20;99.90
54642;DHT22;40536;53.194;5.728;2022-09-17T10:16:22;13.70;99.90
54642;DHT22;40536;53.194;5.728;2022-09-17T10:19:11;13.30;99.90
54642;DHT22;40536;53.194;5.728;2022-09-17T10:21:41;13.00;99.90
54642;DHT22;40536;53.194;5.728;2022-09-17T10:26:45;12.40;99.90
54642;DHT22;40536;53.194;5.728;2022-09-17T10:29:13;12.30;99.90
54642;DHT22;40536;53.194;5.728;2022-09-17T10:31:51;12.50;99.90
54642;DHT22;40536;53.194;5.728;2022-09-17T10:34:21;12.00;99.90
54642;DHT22;40536;53.194;5.728;2022-09-17T10:36:48;11.90;99.90
54642;DHT22;40536;53.194;5.728;2022-09-17T10:42:05;11.60;99.90
54642;DHT22;40536;53.194;5.728;2022-09-17T10:44:38;11.70;99.90
54642;DHT22;40536;53.194;5.728;2022-09-17T10:47:20;11.70;99.90
54642;DHT22;40536;53.194;5.728;2022-09-17T10:50:15;11.70;99.90
54642;DHT22;40536;53.194;5.728;2022-09-17T10:52:47;11.70;99.90
54642;DHT22;40536;53.194;5.728;2022-09-17T10:55:31;12.60;99.90
54642;DHT22;40536;53.194;5.728;2022-09-17T11:03:46;15.50;99.90
54642;DHT22;40536;53.194;5.728;2022-09-17T11:06:23;16.40;99.90
54642;DHT22;40536;53.194;5.728;2022-09-17T11:16:53;12.90;99.90
54642;DHT22;40536;53.194;5.728;2022-09-17T11:22:13;12.60;99.90
54642;DHT22;40536;53.194;5.728;2022-09-17T11:30:13;14.10;99.90
54642;DHT22;40536;53.194;5.728;2022-09-17T11:35:34;16.30;99.90
54642;DHT22;40536;53.194;5.728;2022-09-17T11:38:21;17.00;99.90
54642;DHT22;40536;53.194;5.728;2022-09-17T11:40:58;17.00;99.90
54642;DHT22;40536;53.194;5.728;2022-09-17T11:43:34;17.00;99.90
54642;DHT22;40536;53.194;5.728;2022-09-17T11:51:45;17.30;99.90
54642;DHT22;40536;53.194;5.728;2022-09-17T11:54:26;17.40;99.90
54642;DHT22;40536;53.194;5.728;2022-09-17T12:02:01;17.30;99.90
54642;DHT22;40536;53.194;5.728;2022-09-17T12:10:48;17.30;99.90
54642;DHT22;40536;53.194;5.728;2022-09-17T12:15:38;17.20;99.90
54642;DHT22;40536;53.194;5.728;2022-09-17T12:18:19;17.20;99.90
54642;DHT22;40536;53.194;5.728;2022-09-17T12:20:48;17.20;99.90
54642;DHT22;40536;53.194;5.728;2022-09-17T12:23:20;17.30;99.90
54642;DHT22;40536;53.194;5.728;2022-09-17T12:26:18;17.60;99.90
54642;DHT22;40536;53.194;5.728;2022-09-17T12:29:21;17.40;99.90
54642;DHT22;40536;53.194;5.728;2022-09-17T12:32:15;16.40;99.90
54642;DHT22;40536;53.194;5.728;2022-09-17T12:37:47;15.10;99.90
54642;DHT22;40536;53.194;5.728;2022-09-17T12:45:55;15.30;99.90
54642;DHT22;40536;53.194;5.728;2022-09-17T12:56:45;14.90;99.90
54642;DHT22;40536;53.194;5.728;2022-09-17T12:59:15;15.10;99.90
54642;DHT22;40536;53.194;5.728;2022-09-17T13:02:21;15.20;99.90
54642;DHT22;40536;53.194;5.728;2022-09-17T13:19:29;14.20;99.90
54642;DHT22;40536;53.194;5.728;2022-09-17T13:22:05;14.20;99.90
54642;DHT22;40536;53.194;5.728;2022-09-17T13:24:32;14.20;99.90
54642;DHT22;40536;53.194;5.728;2022-09-17T13:27:01;14.20;99.90
54642;DHT22;40536;53.194;5.728;2022-09-17T13:37:42;14.70;99.90
54642;DHT22;40536;53.194;5.728;2022-09-17T13:43:18;14.40;99.90
54642;DHT22;40536;53.194;5.728;2022-09-17T13:48:25;14.30;99.90
54642;DHT22;40536;53.194;5.728;2022-09-17T13:50:52;14.40;99.90
54642;DHT22;40536;53.194;5.728;2022-09-17T13:53:21;14.10;99.90
54642;DHT22;40536;53.194;5.728;2022-09-17T14:16:47;13.20;99.90
54642;DHT22;40536;53.194;5.728;2022-09-17T14:21:42;13.50;99.90
54642;DHT22;40536;53.194;5.728;2022-09-17T14:24:23;13.80;99.90
54642;DHT22;40536;53.194;5.728;2022-09-17T14:32:14;14.30;99.90
54642;DHT22;40536;53.194;5.728;2022-09-17T14:34:40;14.50;99.90
54642;DHT22;40536;53.194;5.728;2022-09-17T14:37:11;14.60;99.90
54642;DHT22;40536;53.194;5.728;2022-09-17T14:39:38;14.70;99.90
54642;DHT22;40536;53.194;5.728;2022-09-17T14:42:12;14.80;99.90
54642;DHT22;40536;53.194;5.728;2022-09-17T14:44:49;14.80;99.90
54642;DHT22;40536;53.194;5.728;2022-09-17T14:47:17;14.90;99.90
54642;DHT22;40536;53.194;5.728;2022-09-17T14:49:44;14.90;99.90
54642;DHT22;40536;53.194;5.728;2022-09-17T14:52:28;15.00;99.90
54642;DHT22;40536;53.194;5.728;2022-09-17T14:55:17;15.10;99.90
54642;DHT22;40536;53.194;5.728;2022-09-17T14:57:48;15.10;99.90
54642;DHT22;40536;53.194;5.728;2022-09-17T15:00:21;15.10;99.90
54642;DHT22;40536;53.194;5.728;2022-09-17T15:02:53;15.20;99.90
54642;DHT22;40536;53.194;5.728;2022-09-17T15:05:31;15.20;99.90
54642;DHT22;40536;53.194;5.728;2022-09-17T15:08:17;15.20;99.90
54642;DHT22;40536;53.194;5.728;2022-09-17T15:13:33;15.20;99.90
54642;DHT22;40536;53.194;5.728;2022-09-17T15:16:04;15.10;99.90
54642;DHT22;40536;53.194;5.728;2022-09-17T15:18:39;15.00;99.90
54642;DHT22;40536;53.194;5.728;2022-09-17T15:21:19;15.00;99.90
54642;DHT22;40536;53.194;5.728;2022-09-17T15:23:47;15.00;99.90
54642;DHT22;40536;53.194;5.728;2022-09-17T15:26:16;15.00;99.90
54642;DHT22;40536;53.194;5.728;2022-09-17T15:28:45;15.00;99.90
54642;DHT22;40536;53.194;5.728;2022-09-17T15:31:16;15.10;99.90
54642;DHT22;40536;53.194;5.728;2022-09-17T15:33:43;15.00;99.90
54642;DHT22;40536;53.194;5.728;2022-09-17T15:36:17;14.80;99.90
54642;DHT22;40536;53.194;5.728;2022-09-17T15:38:44;14.70;99.90
54642;DHT22;40536;53.194;5.728;2022-09-17T15:41:29;14.70;99.90
54642;DHT22;40536;53.194;5.728;2022-09-17T15:44:24;14.70;99.90
54642;DHT22;40536;53.194;5.728;2022-09-17T15:46:53;14.70;99.90
54642;DHT22;40536;53.194;5.728;2022-09-17T15:49:33;14.80;99.90
54642;DHT22;40536;53.194;5.728;2022-09-17T15:52:25;14.80;99.90
54642;DHT22;40536;53.194;5.728;2022-09-17T15:54:52;14.70;99.90
54642;DHT22;40536;53.194;5.728;2022-09-17T15:57:20;14.50;99.90
54642;DHT22;40536;53.194;5.728;2022-09-17T15:59:46;14.40;99.90
54642;DHT22;40536;53.194;5.728;2022-09-17T16:02:28;14.30;99.90
54642;DHT22;40536;53.194;5.728;2022-09-17T16:07:49;14.10;99.90
54642;DHT22;40536;53.194;5.728;2022-09-17T16:10:18;14.10;99.90
54642;DHT22;40536;53.194;5.728;2022-09-17T16:12:44;14.20;99.90
54642;DHT22;40536;53.194;5.728;2022-09-17T16:15:12;14.30;99.90
54642;DHT22;40536;53.194;5.728;2022-09-17T16:17:47;14.20;99.90
54642;DHT22;40536;53.194;5.728;2022-09-17T16:20:23;14.20;99.90
54642;DHT22;40536;53.194;5.728;2022-09-17T16:22:51;14.20;99.90
54642;DHT22;40536;53.194;5.728;2022-09-17T16:25:20;14.20;99.90
54642;DHT22;40536;53.194;5.728;2022-09-17T16:27:57;14.20;99.90
54642;DHT22;40536;53.194;5.728;2022-09-17T16:30:24;14.30;99.90
54642;DHT22;40536;53.194;5.728;2022-09-17T16:32:50;14.30;99.90
54642;DHT22;40536;53.194;5.728;2022-09-17T16:35:19;14.20;99.90
54642;DHT22;40536;53.194;5.728;2022-09-17T16:37:52;14.20;99.90
54642;DHT22;40536;53.194;5.728;2022-09-17T16:40:20;14.20;99.90
54642;DHT22;40536;53.194;5.728;2022-09-17T16:42:46;14.20;99.90
54642;DHT22;40536;53.194;5.728;2022-09-17T16:45:12;14.20;99.90
54642;DHT22;40536;53.194;5.728;2022-09-17T16:47:40;14.20;99.90
54642;DHT22;40536;53.194;5.728;2022-09-17T16:50:11;14.00;99.90
54642;DHT22;40536;53.194;5.728;2022-09-17T16:52:37;13.80;99.90
54642;DHT22;40536;53.194;5.728;2022-09-17T16:55:03;13.50;99.90
54642;DHT22;40536;53.194;5.728;2022-09-17T16:57:30;13.30;99.90
54642;DHT22;40536;53.194;5.728;2022-09-17T16:59:56;13.80;99.90
54642;DHT22;40536;53.194;5.728;2022-09-17T17:02:22;13.10;99.90
54642;DHT22;40536;53.194;5.728;2022-09-17T17:04:48;12.90;99.90
54642;DHT22;40536;53.194;5.728;2022-09-17T17:07:13;12.80;99.90
54642;DHT22;40536;53.194;5.728;2022-09-17T17:09:39;13.00;99.90
54642;DHT22;40536;53.194;5.728;2022-09-17T17:12:05;12.70;99.90
54642;DHT22;40536;53.194;5.728;2022-09-17T17:14:31;12.60;99.90
54642;DHT22;40536;53.194;5.728;2022-09-17T17:16:56;12.50;99.90
54642;DHT22;40536;53.194;5.728;2022-09-17T17:19:22;12.70;99.90
54642;DHT22;40536;53.194;5.728;2022-09-17T17:21:50;12.50;99.90
54642;DHT22;40536;53.194;5.728;2022-09-17T17:24:16;12.50;99.90
54642;DHT22;40536;53.194;5.728;2022-09-17T17:26:42;12.50;99.90
54642;DHT22;40536;53.194;5.728;2022-09-17T17:29:09;12.40;99.90
54642;DHT22;40536;53.194;5.728;2022-09-17T17:31:35;12.40;99.90
54642;DHT22;40536;53.194;5.728;2022-09-17T17:34:01;12.40;99.90
54642;DHT22;40536;53.194;5.728;2022-09-17T17:36:27;13.10;99.90
54642;DHT22;40536;53.194;5.728;2022-09-17T17:38:59;12.40;99.90
54642;DHT22;40536;53.194;5.728;2022-09-17T17:41:25;12.30;99.90
54642;DHT22;40536;53.194;5.728;2022-09-17T17:43:53;12.10;99.90
54642;DHT22;40536;53.194;5.728;2022-09-17T17:46:21;12.40;99.90
54642;DHT22;40536;53.194;5.728;2022-09-17T17:48:48;11.90;99.90
54642;DHT22;40536;53.194;5.728;2022-09-17T17:51:14;11.80;99.90
54642;DHT22;40536;53.194;5.728;2022-09-17T17:53:43;11.70;99.90
54642;DHT22;40536;53.194;5.728;2022-09-17T17:56:10;12.00;99.90
54642;DHT22;40536;53.194;5.728;2022-09-17T17:58:37;11.70;99.90
54642;DHT22;40536;53.194;5.728;2022-09-17T18:01:11;11.70;99.90
54642;DHT22;40536;53.194;5.728;2022-09-17T18:03:37;11.70;99.90
54642;DHT22;40536;53.194;5.728;2022-09-17T18:06:04;11.70;99.90
54642;DHT22;40536;53.194;5.728;2022-09-17T18:08:31;11.80;99.90
54642;DHT22;40536;53.194;5.728;2022-09-17T18:10:58;12.00;99.90
54642;DHT22;40536;53.194;5.728;2022-09-17T18:13:25;11.80;99.90
54642;DHT22;40536;53.194;5.728;2022-09-17T18:15:52;11.80;99.90
54642;DHT22;40536;53.194;5.728;2022-09-17T18:18:18;11.80;99.90
54642;DHT22;40536;53.194;5.728;2022-09-17T18:20:46;11.90;99.90
54642;DHT22;40536;53.194;5.728;2022-09-17T18:23:12;11.70;99.90
54642;DHT22;40536;53.194;5.728;2022-09-17T18:25:38;11.70;99.90
54642;DHT22;40536;53.194;5.728;2022-09-17T18:28:03;12.60;99.90
54642;DHT22;40536;53.194;5.728;2022-09-17T18:30:29;11.70;99.90
54642;DHT22;40536;53.194;5.728;2022-09-17T18:36:12;11.80;99.90
54642;DHT22;40536;53.194;5.728;2022-09-17T18:38:39;11.80;99.90
54642;DHT22;40536;53.194;5.728;2022-09-17T18:41:06;11.80;99.90
54642;DHT22;40536;53.194;5.728;2022-09-17T18:43:33;11.80;99.90
54642;DHT22;40536;53.194;5.728;2022-09-17T18:46:02;11.80;99.90
54642;DHT22;40536;53.194;5.728;2022-09-17T18:48:30;11.80;99.90
54642;DHT22;40536;53.194;5.728;2022-09-17T18:51:04;11.80;99.90
54642;DHT22;40536;53.194;5.728;2022-09-17T18:53:32;11.80;99.90
54642;DHT22;40536;53.194;5.728;2022-09-17T18:56:09;11.80;99.90
54642;DHT22;40536;53.194;5.728;2022-09-17T18:58:36;11.70;99.90
54642;DHT22;40536;53.194;5.728;2022-09-17T19:01:07;11.70;99.90
54642;DHT22;40536;53.194;5.728;2022-09-17T19:03:33;11.70;99.90
54642;DHT22;40536;53.194;5.728;2022-09-17T19:06:00;11.70;99.90
54642;DHT22;40536;53.194;5.728;2022-09-17T19:08:26;11.70;99.90
54642;DHT22;40536;53.194;5.728;2022-09-17T19:10:52;11.70;99.90